Time;durP1;ratioP1;P1;durP2;ratioP2;P2;SDS_P1;SDS_P2;PMS_P1;PMS_P2;Temp;Humidity;BMP_temperature;BMP_pressure;BME280_temperature;BME280_humidity;BME280_pressure;Samples;Min_cycle;Max_cycle;Signal;HPM_P1;HPM_P2
2022/01/04 00:01:55;;;;;;;21.70;13.20;;;;;;;5.57;75.63;97677.90;25139;1311;3055730;-67
2022/01/04 00:04:25;;;;;;;19.70;10.00;;;;;;;5.62;75.57;97684.52;25150;1312;3026376;-67
2022/01/04 00:07:02;;;;;;;18.70;10.40;;;;;;;6.05;74.55;97671.63;25133;1312;3070977;-66
2022/01/04 00:09:34;;;;;;;16.60;10.20;;;;;;;6.22;73.60;97673.73;25150;1311;3026467;-65
2022/01/04 00:15:11;;;;;;;27.70;16.50;;;;;;;5.78;74.88;97675.59;25176;1312;3052659;-66
2022/01/04 00:17:43;;;;;;;30.20;17.00;;;;;;;5.62;75.51;97675.48;25133;1312;3026580;-65
2022/01/04 00:20:12;;;;;;;22.40;12.00;;;;;;;5.50;76.30;97694.84;25152;1312;3026313;-62
2022/01/04 00:22:43;;;;;;;21.20;12.40;;;;;;;5.93;75.77;97691.73;25149;1312;3053250;-62
2022/01/04 00:25:12;;;;;;;19.10;11.60;;;;;;;6.12;74.81;97696.33;25178;1312;3026683;-65
2022/01/04 00:28:01;;;;;;;30.10;13.80;;;;;;;5.80;75.33;97697.15;25131;1312;3052580;-65
2022/01/04 00:30:31;;;;;;;25.10;14.60;;;;;;;5.65;75.91;97684.62;25190;1312;3026848;-68
2022/01/04 00:33:02;;;;;;;20.70;13.00;;;;;;;5.43;76.57;97701.91;25154;1312;3026741;-67
2022/01/04 00:35:31;;;;;;;9.50;6.40;;;;;;;5.50;76.70;97693.60;25143;1312;3027277;-64
2022/01/04 00:38:00;;;;;;;9.10;5.00;;;;;;;5.85;75.61;97699.06;25154;1312;3026329;-68
2022/01/04 00:40:29;;;;;;;8.80;4.80;;;;;;;5.93;75.10;97697.52;25140;1312;3057981;-65
2022/01/04 00:42:58;;;;;;;6.60;4.70;;;;;;;5.80;75.17;97695.08;25160;1312;3026173;-68
2022/01/04 00:45:31;;;;;;;5.70;3.40;;;;;;;5.54;76.08;97700.84;25142;1312;3026826;-64
2022/01/04 00:50:49;;;;;;;4.80;3.10;;;;;;;5.23;77.15;97707.44;25151;1312;3026257;-67
2022/01/04 00:53:18;;;;;;;5.00;2.70;;;;;;;5.63;76.36;97692.44;25131;1313;3054014;-65
2022/01/04 00:55:47;;;;;;;2.60;1.90;;;;;;;5.93;75.08;97697.66;25141;1312;3026933;-68
2022/01/04 00:58:16;;;;;;;4.30;2.50;;;;;;;5.67;75.58;97699.79;25129;1312;3030384;-65
2022/01/04 01:00:45;;;;;;;4.40;2.30;;;;;;;5.56;75.79;97703.15;25124;1312;3054025;-65
2022/01/04 01:03:14;;;;;;;4.30;2.60;;;;;;;5.43;76.06;97700.55;25148;1312;3027518;-68
2022/01/04 01:05:44;;;;;;;3.50;2.60;;;;;;;5.11;77.06;97713.94;25135;1312;3055133;-66
2022/01/04 01:08:13;;;;;;;3.60;1.80;;;;;;;5.18;77.05;97709.15;25131;1312;3026964;-65
2022/01/04 01:11:02;;;;;;;4.00;2.20;;;;;;;5.72;75.83;97708.14;25129;1312;3049291;-67
2022/01/04 01:13:31;;;;;;;4.80;2.50;;;;;;;5.89;74.51;97716.71;25157;1312;3026626;-63
2022/01/04 01:16:20;;;;;;;2.70;1.90;;;;;;;5.77;74.65;97717.03;25165;1312;3052927;-69
2022/01/04 01:18:49;;;;;;;4.10;2.50;;;;;;;5.42;75.79;97722.47;25146;1312;3026625;-66
2022/01/04 01:21:37;;;;;;;5.20;2.00;;;;;;;5.26;76.22;97728.90;25150;1312;3054921;-65
2022/01/04 01:24:07;;;;;;;3.10;1.90;;;;;;;5.05;76.88;97736.73;25138;1312;3026395;-65
2022/01/04 01:26:36;;;;;;;3.30;1.80;;;;;;;4.96;77.73;97748.61;25155;1312;3049354;-65
2022/01/04 01:29:05;;;;;;;4.20;1.60;;;;;;;5.48;76.37;97741.17;25139;1311;3026721;-64
2022/01/04 01:31:34;;;;;;;3.10;1.80;;;;;;;5.78;75.10;97747.69;25129;1312;3026955;-67
2022/01/04 01:34:03;;;;;;;2.30;1.90;;;;;;;5.59;75.31;97764.07;25146;1310;3048164;-68
2022/01/04 01:36:32;;;;;;;4.10;1.70;;;;;;;5.48;75.53;97763.08;25112;1312;3026940;-65
2022/01/04 01:39:03;;;;;;;4.40;2.40;;;;;;;5.11;76.58;97779.39;25128;1310;3069506;-68
2022/01/04 01:41:32;;;;;;;2.10;1.60;;;;;;;4.88;77.61;97764.52;25151;1312;3027303;-65
2022/01/04 01:44:01;;;;;;;3.90;1.80;;;;;;;4.94;77.55;97765.05;25135;1312;3027783;-65
2022/01/04 01:46:30;;;;;;;3.90;1.80;;;;;;;5.34;76.41;97776.73;25127;1312;3070418;-65
2022/01/04 01:49:00;;;;;;;2.00;1.40;;;;;;;5.50;75.43;97785.48;25131;1312;3026595;-66
2022/01/04 01:51:31;;;;;;;2.60;1.90;;;;;;;5.35;75.47;97782.67;25159;1312;3050522;-63
2022/01/04 01:54:00;;;;;;;3.90;1.80;;;;;;;5.12;76.37;97783.83;25100;1312;3026524;-67
2022/01/04 01:56:29;;;;;;;3.00;1.80;;;;;;;4.90;77.04;97791.83;25127;1312;3028066;-64
2022/01/04 01:58:58;;;;;;;2.80;1.90;;;;;;;4.74;77.48;97796.82;25130;1312;3053679;-65
2022/01/04 02:01:28;;;;;;;2.80;1.70;;;;;;;4.73;78.40;97802.09;25111;1312;3026598;-62
2022/01/04 02:03:57;;;;;;;2.60;1.50;;;;;;;5.40;76.34;97791.22;25132;1312;3028847;-65
2022/01/04 02:06:29;;;;;;;3.30;1.90;;;;;;;5.37;75.72;97798.88;25124;1312;3052951;-62
2022/01/04 02:08:59;;;;;;;3.50;2.30;;;;;;;5.08;76.63;97792.41;25100;1312;3028833;-64
2022/01/04 02:11:29;;;;;;;4.20;2.10;;;;;;;4.93;77.14;97803.80;25158;1312;3027794;-67
2022/01/04 02:13:58;;;;;;;2.20;1.60;;;;;;;4.71;77.71;97801.36;25156;1312;3026748;-66
2022/01/04 02:16:29;;;;;;;2.00;1.30;;;;;;;4.61;78.51;97798.36;25150;1312;3026656;-66
2022/01/04 02:19:02;;;;;;;3.30;1.70;;;;;;;4.97;77.60;97801.06;25175;1312;3027071;-61
2022/01/04 02:21:35;;;;;;;2.60;1.60;;;;;;;5.29;76.11;97802.48;25116;1312;3028546;-67
2022/01/04 02:24:05;;;;;;;3.20;1.80;;;;;;;5.16;76.01;97795.05;25146;1312;3026531;-68
2022/01/04 02:26:34;;;;;;;2.50;1.90;;;;;;;5.01;76.34;97802.23;25141;1311;3026824;-65
2022/01/04 02:29:03;;;;;;;1.80;1.40;;;;;;;4.72;77.28;97814.84;25130;1312;3026276;-66
2022/01/04 02:31:32;;;;;;;3.00;1.60;;;;;;;4.57;77.96;97809.39;25156;1312;3054944;-64
2022/01/04 02:34:01;;;;;;;3.40;1.70;;;;;;;4.50;78.37;97810.66;25145;1312;3026939;-70
2022/01/04 02:36:30;;;;;;;3.00;1.50;;;;;;;4.97;77.36;97824.54;25130;1312;3048695;-64
2022/01/04 02:38:59;;;;;;;3.40;1.50;;;;;;;5.31;75.60;97820.77;25147;1312;3026780;-64
2022/01/04 02:41:28;;;;;;;2.40;1.60;;;;;;;5.26;75.32;97817.66;25158;1312;3055041;-66
2022/01/04 02:43:57;;;;;;;1.80;1.30;;;;;;;4.98;75.99;97821.32;25135;1312;3027542;-69
2022/01/04 02:46:26;;;;;;;3.30;1.80;;;;;;;4.68;76.95;97833.10;25124;1311;3055185;-66
2022/01/04 02:48:55;;;;;;;1.80;1.50;;;;;;;4.52;77.46;97827.36;25161;1312;3026330;-67
2022/01/04 02:51:24;;;;;;;2.90;1.50;;;;;;;4.43;78.06;97828.09;25143;1311;3054934;-65
2022/01/04 02:53:53;;;;;;;4.40;1.60;;;;;;;5.00;76.58;97820.86;25129;1312;3028617;-63
2022/01/04 02:56:22;;;;;;;2.40;1.40;;;;;;;5.31;75.20;97819.21;25118;1312;3051292;-69
2022/01/04 02:58:51;;;;;;;2.70;1.60;;;;;;;5.16;75.19;97820.36;25125;1312;3026275;-64
2022/01/04 03:01:20;;;;;;;2.70;1.90;;;;;;;5.14;75.14;97824.30;25125;1312;3071833;-67
2022/01/04 03:03:48;;;;;;;2.00;1.30;;;;;;;4.85;75.90;97831.17;25121;1313;3026423;-63
2022/01/04 03:06:17;;;;;;;3.10;1.50;;;;;;;4.61;76.81;97842.70;25166;1312;3050740;-63
2022/01/04 03:08:46;;;;;;;1.20;1.10;;;;;;;4.47;77.70;97834.74;25136;1312;3027067;-66
2022/01/04 03:11:15;;;;;;;1.80;1.30;;;;;;;5.07;76.57;97835.33;25139;1312;3054038;-63
2022/01/04 03:13:44;;;;;;;3.10;1.20;;;;;;;5.44;74.67;97844.77;25133;1312;3026497;-68
2022/01/04 03:16:13;;;;;;;2.30;1.50;;;;;;;5.35;74.65;97851.30;25112;1312;3049319;-64
2022/01/04 03:19:02;;;;;;;2.60;1.60;;;;;;;4.97;75.87;97852.48;25152;1312;3026701;-64
2022/01/04 03:21:34;;;;;;;3.50;1.40;;;;;;;4.83;76.21;97848.82;25131;1312;3059423;-67
2022/01/04 03:24:04;;;;;;;2.60;1.50;;;;;;;4.76;76.37;97856.94;25190;1312;3026546;-66
2022/01/04 03:26:33;;;;;;;1.00;0.80;;;;;;;4.55;77.24;97860.14;25134;1312;3027078;-68
2022/01/04 03:29:04;;;;;;;1.80;1.00;;;;;;;5.04;76.37;97865.58;25133;1312;3027927;-66
2022/01/04 03:31:33;;;;;;;1.50;1.00;;;;;;;5.38;74.71;97870.89;25162;1312;3026358;-65
2022/01/04 03:34:02;;;;;;;1.40;1.00;;;;;;;5.28;74.43;97870.48;25139;1312;3028122;-67
2022/01/04 03:36:31;;;;;;;2.40;1.40;;;;;;;5.18;74.73;97875.63;25139;1310;3052890;-67
2022/01/04 03:39:05;;;;;;;2.30;1.40;;;;;;;4.93;75.04;97879.09;25115;1312;3026798;-64
2022/01/04 03:41:38;;;;;;;2.10;1.00;;;;;;;4.60;76.38;97883.89;25126;1312;3051369;-70
2022/01/04 03:44:10;;;;;;;1.60;1.50;;;;;;;4.45;76.70;97887.62;25144;1311;3051746;-64
2022/01/04 03:46:39;;;;;;;1.00;0.90;;;;;;;4.31;77.59;97889.50;25138;1312;3026498;-68
2022/01/04 03:49:07;;;;;;;2.70;1.10;;;;;;;5.03;76.01;97900.47;25141;1312;3026290;-66
2022/01/04 03:51:36;;;;;;;2.60;1.20;;;;;;;5.33;73.99;97894.96;25150;1312;3052291;-66
2022/01/04 03:54:05;;;;;;;1.60;1.20;;;;;;;5.28;73.86;97903.80;25110;1312;3026692;-69
2022/01/04 03:56:34;;;;;;;1.10;0.80;;;;;;;5.03;74.42;97905.55;25138;1312;3052469;-64
2022/01/04 03:59:03;;;;;;;3.10;1.00;;;;;;;4.70;75.49;97902.52;25130;1311;3026416;-65
2022/01/04 04:01:32;;;;;;;3.50;1.20;;;;;;;4.53;75.88;97906.55;25110;1312;3049170;-66
2022/01/04 04:04:02;;;;;;;1.40;0.80;;;;;;;4.35;76.56;97914.02;25134;1312;3026727;-64
2022/01/04 04:06:31;;;;;;;1.60;0.90;;;;;;;4.26;76.91;97920.96;25140;1312;3025955;-67
2022/01/04 04:09:01;;;;;;;1.00;0.80;;;;;;;4.58;76.30;97926.65;25109;1312;3051614;-64
2022/01/04 04:11:29;;;;;;;3.00;1.00;;;;;;;4.89;74.92;97929.98;25152;1311;3029503;-67
2022/01/04 04:13:59;;;;;;;1.80;1.00;;;;;;;5.01;74.41;97933.46;25126;1311;3054846;-64
2022/01/04 04:16:28;;;;;;;1.90;1.10;;;;;;;4.82;74.55;97938.60;25115;1312;3026542;-67
2022/01/04 04:18:57;;;;;;;1.60;0.80;;;;;;;4.57;75.29;97941.50;25167;1312;3027568;-63
2022/01/04 04:21:31;;;;;;;1.10;0.90;;;;;;;4.37;76.26;97950.34;25158;1312;3059355;-65
2022/01/04 04:24:00;;;;;;;1.40;1.10;;;;;;;4.32;76.21;97950.27;25125;1312;3026663;-65
2022/01/04 04:26:29;;;;;;;1.60;1.10;;;;;;;4.21;76.97;97960.08;25138;1312;3050796;-70
2022/01/04 04:28:58;;;;;;;1.80;1.10;;;;;;;4.73;76.08;97954.95;25141;1312;3026583;-64
2022/01/04 04:31:27;;;;;;;1.70;0.90;;;;;;;5.00;74.46;97953.83;25128;1312;3054034;-70
2022/01/04 04:33:56;;;;;;;1.80;1.20;;;;;;;5.03;74.20;97961.45;25133;1312;3026381;-70
2022/01/04 04:36:27;;;;;;;2.60;1.30;;;;;;;4.88;74.26;97964.44;25150;1312;3047399;-64
2022/01/04 04:38:55;;;;;;;4.20;1.30;;;;;;;4.87;74.45;97969.53;25131;1312;3026339;-65
2022/01/04 04:41:25;;;;;;;1.70;1.60;;;;;;;4.63;74.92;97978.43;25134;1312;3027298;-61
2022/01/04 04:43:54;;;;;;;1.70;1.20;;;;;;;4.38;76.01;97981.10;25133;1312;3026079;-65
2022/01/04 04:46:23;;;;;;;1.10;1.00;;;;;;;4.36;76.20;97981.39;25119;1313;3056160;-68
2022/01/04 04:48:53;;;;;;;2.20;1.00;;;;;;;4.79;75.64;97980.77;25133;1312;3026420;-64
2022/01/04 04:51:22;;;;;;;1.10;0.80;;;;;;;5.10;73.99;97985.84;25150;1312;3027265;-66
2022/01/04 04:53:51;;;;;;;1.70;1.10;;;;;;;5.01;73.95;97991.05;25140;1310;3052406;-70
2022/01/04 04:56:20;;;;;;;1.50;1.40;;;;;;;4.90;74.12;97995.73;25188;1312;3026859;-66
2022/01/04 04:58:49;;;;;;;1.30;1.10;;;;;;;4.62;75.09;97999.33;25123;1312;3047591;-64
2022/01/04 05:01:18;;;;;;;1.50;1.30;;;;;;;4.29;76.22;97998.80;25145;1312;3026736;-62
2022/01/04 05:03:47;;;;;;;2.30;1.50;;;;;;;4.25;76.53;97999.41;25159;1312;3026349;-68
2022/01/04 05:06:16;;;;;;;1.70;1.00;;;;;;;4.23;76.85;98009.85;25122;1312;3048873;-69
2022/01/04 05:08:45;;;;;;;2.00;1.30;;;;;;;4.65;75.44;98006.38;25167;1312;3026647;-68
2022/01/04 05:11:15;;;;;;;3.60;1.60;;;;;;;4.80;74.53;98008.14;25118;1312;3071713;-66
2022/01/04 05:13:44;;;;;;;4.20;1.80;;;;;;;4.91;74.01;98003.47;25141;1312;3026847;-66
2022/01/04 05:16:13;;;;;;;2.30;1.50;;;;;;;4.72;74.24;98011.89;25145;1312;3050560;-67
2022/01/04 05:18:43;;;;;;;2.10;1.30;;;;;;;4.26;75.47;98033.30;25138;1312;3026351;-70
2022/01/04 05:21:12;;;;;;;4.40;2.30;;;;;;;4.05;76.44;98028.42;25114;1312;3027076;-67
2022/01/04 05:23:44;;;;;;;6.20;2.80;;;;;;;3.84;77.13;98033.23;25121;1312;3053446;-67
2022/01/04 05:26:14;;;;;;;3.30;1.50;;;;;;;3.88;77.42;98040.48;25106;1310;3026697;-66
2022/01/04 05:28:45;;;;;;;6.40;3.20;;;;;;;4.52;75.62;98030.21;24920;1312;3335597;-66
2022/01/04 05:31:14;;;;;;;8.60;3.50;;;;;;;4.83;73.89;98042.28;25163;1312;3051715;-68
2022/01/04 05:33:43;;;;;;;6.80;3.10;;;;;;;4.76;73.76;98043.55;25125;1310;3026873;-68
2022/01/04 05:36:12;;;;;;;5.70;2.80;;;;;;;4.44;74.33;98049.91;25119;1312;3054199;-65
2022/01/04 05:38:43;;;;;;;5.20;2.30;;;;;;;4.19;75.34;98054.14;25141;1312;3026408;-67
2022/01/04 05:41:12;;;;;;;4.20;1.90;;;;;;;4.02;75.90;98063.25;25105;1312;3026455;-66
2022/01/04 05:43:42;;;;;;;4.60;2.10;;;;;;;3.81;76.60;98069.28;25135;1312;3026806;-67
2022/01/04 05:46:11;;;;;;;2.40;1.60;;;;;;;3.70;77.04;98076.93;25152;1312;3027325;-63
2022/01/04 05:48:40;;;;;;;3.40;1.60;;;;;;;4.23;75.72;98068.80;25124;1312;3069901;-66
2022/01/04 05:51:08;;;;;;;2.10;1.40;;;;;;;4.60;74.35;98074.88;25128;1312;3026556;-68
2022/01/04 05:53:37;;;;;;;3.00;1.50;;;;;;;4.56;73.98;98079.58;25156;1312;3053333;-65
2022/01/04 05:56:07;;;;;;;3.00;1.60;;;;;;;4.47;74.36;98088.98;25119;1312;3026793;-65
2022/01/04 05:58:36;;;;;;;1.60;1.20;;;;;;;4.17;75.40;98096.71;25162;1312;3054070;-65
2022/01/04 06:01:05;;;;;;;3.70;1.70;;;;;;;3.99;75.95;98104.61;25173;1312;3026833;-70
2022/01/04 06:03:34;;;;;;;2.00;1.50;;;;;;;3.99;75.99;98099.09;25112;1312;3049130;-65
2022/01/04 06:06:04;;;;;;;2.20;1.10;;;;;;;3.93;76.61;98100.99;25135;1312;3026631;-63
2022/01/04 06:08:36;;;;;;;2.10;1.20;;;;;;;4.45;75.09;98111.83;25135;1312;3026803;-65
2022/01/04 06:11:08;;;;;;;3.20;1.30;;;;;;;4.87;73.51;98114.72;25123;1312;3051283;-67
2022/01/04 06:16:26;;;;;;;2.80;1.90;;;;;;;4.52;73.78;98125.94;25162;1312;3051961;-67
2022/01/04 06:18:58;;;;;;;2.40;1.80;;;;;;;4.25;74.43;98132.35;25190;1312;3026162;-66
2022/01/04 06:21:27;;;;;;;4.40;1.90;;;;;;;4.08;75.08;98137.94;25126;1313;3028674;-69
2022/01/04 06:23:57;;;;;;;2.70;1.80;;;;;;;4.00;75.01;98149.31;25163;1310;3053666;-68
2022/01/04 06:26:27;;;;;;;5.80;1.70;;;;;;;3.83;75.66;98155.42;25141;1312;3026857;-65
2022/01/04 06:28:56;;;;;;;2.30;1.70;;;;;;;3.90;75.71;98149.81;25169;1312;3027306;-66
2022/01/04 06:31:27;;;;;;;2.80;1.50;;;;;;;4.47;74.18;98147.88;25159;1313;3025855;-66
2022/01/04 06:33:56;;;;;;;3.10;1.50;;;;;;;4.91;72.35;98153.89;25143;1312;3026948;-65
2022/01/04 06:36:24;;;;;;;2.50;1.30;;;;;;;4.95;71.79;98155.41;25139;1312;3026889;-69
2022/01/04 06:38:54;;;;;;;2.30;1.50;;;;;;;4.70;72.15;98155.60;25127;1312;3051548;-68
2022/01/04 06:41:23;;;;;;;2.10;1.60;;;;;;;4.55;72.71;98165.15;25121;1313;3027418;-69
2022/01/04 06:43:52;;;;;;;2.30;1.50;;;;;;;4.33;73.38;98161.34;25149;1312;3026448;-71
2022/01/04 06:46:21;;;;;;;1.90;1.50;;;;;;;4.20;73.89;98173.84;25161;1312;3054333;-65
2022/01/04 06:48:49;;;;;;;2.80;1.80;;;;;;;4.10;74.18;98164.54;25155;1310;3027241;-64
2022/01/04 06:51:18;;;;;;;3.00;2.00;;;;;;;4.02;74.22;98171.73;25116;1313;3048400;-69
2022/01/04 06:53:47;;;;;;;2.30;1.50;;;;;;;3.98;74.54;98178.50;25156;1312;3027132;-66
2022/01/04 06:56:16;;;;;;;2.20;1.40;;;;;;;4.53;73.17;98170.43;25128;1312;3071155;-67
2022/01/04 06:58:45;;;;;;;2.40;1.40;;;;;;;4.86;72.11;98167.70;25143;1313;3028920;-69
2022/01/04 07:01:14;;;;;;;3.10;2.00;;;;;;;4.76;71.99;98177.64;25141;1312;3053746;-65
2022/01/04 07:03:43;;;;;;;2.30;1.30;;;;;;;4.73;71.94;98171.26;25120;1312;3026537;-69
2022/01/04 07:06:12;;;;;;;2.60;1.50;;;;;;;4.39;73.14;98177.63;25123;1313;3056787;-67
2022/01/04 07:08:42;;;;;;;2.20;1.40;;;;;;;4.11;74.39;98185.78;25133;1312;3027120;-70
2022/01/04 07:11:11;;;;;;;4.30;2.10;;;;;;;4.06;74.52;98184.16;25170;1312;3026365;-65
2022/01/04 07:13:40;;;;;;;4.10;1.70;;;;;;;3.85;75.33;98202.73;25127;1315;3053276;-66
2022/01/04 07:16:10;;;;;;;2.80;1.40;;;;;;;3.76;75.94;98192.69;25155;1312;3026658;-67
2022/01/04 07:18:39;;;;;;;2.10;1.60;;;;;;;4.29;74.58;98189.64;25138;1312;3026316;-67
2022/01/04 07:21:16;;;;;;;2.20;1.40;;;;;;;4.56;73.13;98200.98;25122;1313;3055842;-70
2022/01/04 07:23:46;;;;;;;3.30;2.00;;;;;;;4.69;72.47;98192.79;25155;1312;3028869;-68
2022/01/04 07:26:16;;;;;;;1.90;1.60;;;;;;;4.45;73.10;98199.18;25137;1312;3026786;-68
2022/01/04 07:28:46;;;;;;;3.50;1.80;;;;;;;4.36;73.58;98199.69;25147;1312;3029059;-69
2022/01/04 07:31:15;;;;;;;2.50;1.50;;;;;;;4.26;73.77;98201.38;25139;1311;3027357;-69
2022/01/04 07:33:45;;;;;;;2.90;1.80;;;;;;;3.96;75.22;98218.64;25201;1313;3026528;-71
2022/01/04 07:36:14;;;;;;;1.80;1.60;;;;;;;3.86;75.86;98209.84;25118;1312;3027562;-68
2022/01/04 07:38:43;;;;;;;1.20;0.90;;;;;;;3.88;76.09;98213.50;25143;1312;3026287;-67
2022/01/04 07:41:12;;;;;;;1.90;1.40;;;;;;;4.33;75.13;98213.52;25151;1315;3054351;-69
2022/01/04 07:43:41;;;;;;;3.20;1.40;;;;;;;4.82;73.10;98217.06;25189;1312;3026942;-65
2022/01/04 07:46:10;;;;;;;3.50;1.80;;;;;;;4.76;73.21;98219.98;25180;1310;3054374;-66
2022/01/04 07:48:39;;;;;;;4.30;2.40;;;;;;;4.54;74.04;98222.76;25136;1312;3030025;-70
2022/01/04 07:51:08;;;;;;;4.80;2.50;;;;;;;4.51;74.05;98227.10;25161;1312;3048062;-69
2022/01/04 07:53:37;;;;;;;4.90;2.90;;;;;;;4.34;74.78;98240.70;25150;1312;3026807;-66
2022/01/04 07:56:06;;;;;;;5.30;3.50;;;;;;;4.25;75.36;98236.14;25170;1312;3070953;-69
2022/01/04 07:58:36;;;;;;;4.50;3.00;;;;;;;4.13;75.69;98238.55;25140;1311;3026682;-64
2022/01/04 08:01:05;;;;;;;4.60;2.40;;;;;;;4.08;76.42;98238.95;25142;1312;3026873;-69
2022/01/04 08:03:35;;;;;;;4.70;2.80;;;;;;;4.71;75.29;98236.06;25109;1315;3066758;-67
2022/01/04 08:06:09;;;;;;;;;;;;;;;5.40;72.74;98236.45;25148;1312;3051879;-68
2022/01/04 08:08:40;;;;;;;3.50;2.20;;;;;;;5.33;72.19;98238.80;25153;1312;3026687;-67
2022/01/04 08:11:09;;;;;;;3.30;2.50;;;;;;;5.05;72.44;98246.64;25134;1312;3026763;-69
2022/01/04 08:13:38;;;;;;;3.00;2.50;;;;;;;4.73;73.38;98252.75;25168;1312;3048506;-72
2022/01/04 08:16:07;;;;;;;3.40;2.50;;;;;;;4.59;73.79;98257.88;25196;1312;3026417;-66
2022/01/04 08:18:56;;;;;;;3.30;2.20;;;;;;;4.42;73.94;98260.71;25134;1312;3068704;-69
2022/01/04 08:21:26;;;;;;;4.90;2.80;;;;;;;4.15;75.02;98264.78;25144;1312;3028075;-68
2022/01/04 08:23:55;;;;;;;4.30;2.50;;;;;;;4.09;75.50;98261.96;25125;1313;3053001;-68
2022/01/04 08:26:25;;;;;;;4.10;2.50;;;;;;;4.10;75.52;98265.23;25110;1312;3026462;-68
2022/01/04 08:28:53;;;;;;;3.70;2.30;;;;;;;4.60;74.59;98263.52;25125;1313;3027308;-72
2022/01/04 08:31:33;;;;;;;3.70;2.00;;;;;;;5.33;72.45;98260.80;25138;1312;3054781;-69
2022/01/04 08:34:06;;;;;;;2.70;1.80;;;;;;;5.33;71.49;98259.27;25167;1312;3026547;-67
2022/01/04 08:36:37;;;;;;;3.20;2.20;;;;;;;4.92;72.51;98266.08;25162;1312;3027614;-67
2022/01/04 08:39:06;;;;;;;4.00;2.40;;;;;;;4.80;73.19;98264.85;25142;1312;3026917;-67
2022/01/04 08:41:36;;;;;;;4.70;2.50;;;;;;;4.56;74.13;98269.51;25134;1312;3026460;-62
2022/01/04 08:44:05;;;;;;;4.30;2.50;;;;;;;4.40;74.74;98276.42;25146;1312;3056999;-68
2022/01/04 08:46:38;;;;;;;5.70;4.10;;;;;;;4.33;74.97;98272.81;25136;1312;3026581;-68
2022/01/04 08:49:07;;;;;;;11.70;6.60;;;;;;;4.23;75.36;98275.61;25220;1312;3027352;-70
2022/01/04 08:51:36;;;;;;;15.50;7.80;;;;;;;4.14;76.24;98272.45;25120;1312;3026410;-67
2022/01/04 08:54:05;;;;;;;11.90;6.90;;;;;;;4.64;75.48;98269.23;25137;1312;3049379;-66
2022/01/04 08:56:34;;;;;;;17.40;8.60;;;;;;;5.17;73.59;98263.13;25129;1312;3026520;-69
2022/01/04 08:59:05;;;;;;;19.90;9.20;;;;;;;5.15;73.35;98268.96;25132;1312;3058015;-67
2022/01/04 09:01:35;;;;;;;18.60;9.00;;;;;;;5.03;73.39;98270.16;25112;1311;3026890;-69
2022/01/04 09:04:06;;;;;;;23.80;12.90;;;;;;;4.98;73.50;98267.15;25169;1312;3027329;-68
2022/01/04 09:06:35;;;;;;;27.40;14.00;;;;;;;4.76;73.99;98266.31;25197;1312;3026803;-67
2022/01/04 09:09:17;;;;;;;26.60;13.80;;;;;;;4.53;74.76;98288.00;25149;1312;3071481;-70
2022/01/04 09:11:46;;;;;;;26.40;15.00;;;;;;;4.48;74.94;98292.31;25177;1312;3026066;-70
2022/01/04 09:19:37;;;;;;;24.10;10.90;;;;;;;4.99;74.28;98289.31;25148;1312;3051790;-70
2022/01/04 09:22:06;;;;;;;19.60;9.30;;;;;;;5.53;72.77;98287.98;25139;1312;3026497;-71
2022/01/04 09:24:35;;;;;;;11.00;6.10;;;;;;;5.64;72.04;98288.20;25138;1312;3027404;-69
2022/01/04 09:27:06;;;;;;;8.50;4.70;;;;;;;5.32;72.42;98295.95;25177;1312;3047917;-71
2022/01/04 09:29:34;;;;;;;8.00;4.70;;;;;;;5.26;72.86;98296.85;25152;1312;3026863;-65
2022/01/04 09:32:04;;;;;;;7.50;4.40;;;;;;;4.98;73.64;98301.55;25134;1312;3026651;-70
2022/01/04 09:34:34;;;;;;;5.00;3.60;;;;;;;4.89;73.87;98306.86;25137;1312;3048118;-71
2022/01/04 09:37:03;;;;;;;6.10;3.30;;;;;;;4.80;74.30;98301.98;25148;1312;3029078;-72
2022/01/04 09:39:32;;;;;;;6.00;3.50;;;;;;;4.63;75.06;98310.21;25119;1312;3071085;-72
2022/01/04 09:42:01;;;;;;;3.30;2.40;;;;;;;4.47;75.69;98311.05;25141;1311;3026223;-66
2022/01/04 09:44:31;;;;;;;4.20;2.90;;;;;;;5.05;74.59;98308.60;25117;1312;3053237;-66
2022/01/04 09:47:02;;;;;;;5.10;3.20;;;;;;;5.57;72.63;98305.98;25137;1312;3026279;-68
2022/01/04 09:49:31;;;;;;;6.70;3.30;;;;;;;5.53;72.48;98305.16;25152;1312;3055071;-71
2022/01/04 09:52:00;;;;;;;8.00;2.90;;;;;;;5.38;72.61;98308.46;25167;1312;3026898;-69
2022/01/04 09:54:29;;;;;;;4.40;2.90;;;;;;;5.24;73.01;98310.30;25119;1312;3048877;-67
2022/01/04 09:56:59;;;;;;;6.50;3.90;;;;;;;5.11;73.36;98311.90;25147;1315;3026664;-67
2022/01/04 09:59:28;;;;;;;4.00;2.50;;;;;;;4.97;73.74;98313.37;25207;1312;3028973;-66
2022/01/04 10:02:02;;;;;;;6.50;3.30;;;;;;;4.72;74.57;98320.34;25130;1312;3049141;-64
2022/01/04 10:04:31;;;;;;;4.00;2.60;;;;;;;4.65;74.84;98317.92;25243;1315;3056053;-69
2022/01/04 10:07:02;;;;;;;3.50;2.40;;;;;;;4.65;75.28;98312.38;25156;1312;3028063;-64
2022/01/04 10:09:46;;;;;;;4.60;1.90;;;;;;;5.31;73.90;98302.59;25171;1312;3049631;-70
2022/01/04 10:12:21;;;;;;;2.30;1.90;;;;;;;5.81;71.68;98297.10;25149;1312;3054900;-66
2022/01/04 10:14:51;;;;;;;5.50;2.00;;;;;;;5.77;71.42;98295.96;25174;1312;3051200;-67
2022/01/04 10:17:40;;;;;;;5.60;2.40;;;;;;;5.71;71.73;98296.95;25380;1312;3071389;-65
2022/01/04 10:20:10;;;;;;;7.20;2.80;;;;;;;5.44;72.42;98303.45;25483;1312;3026513;-65
2022/01/04 10:22:40;;;;;;;5.00;3.00;;;;;;;5.42;72.94;98302.13;25130;1312;3027248;-68
2022/01/04 10:25:11;;;;;;;4.30;2.60;;;;;;;5.31;73.25;98302.43;25108;1312;3028633;-68
2022/01/04 10:27:47;;;;;;;8.30;3.20;;;;;;;5.13;73.60;98307.77;25234;1312;3048859;-67
2022/01/04 10:30:28;;;;;;;4.20;2.60;;;;;;;5.12;73.63;98307.35;25131;1312;3026657;-68
2022/01/04 10:32:58;;;;;;;6.00;3.00;;;;;;;4.91;74.17;98301.20;25153;1312;3054648;-67
2022/01/04 10:35:35;;;;;;;5.00;2.80;;;;;;;4.91;74.40;98300.17;25132;1312;3026075;-69
2022/01/04 10:38:42;;;;;;;6.00;2.90;;;;;;;5.76;73.02;98297.56;25109;1312;3051936;-65
2022/01/04 10:41:31;;;;;;;5.50;3.00;;;;;;;6.23;71.04;98295.15;25109;1312;3052212;-68
2022/01/04 10:44:06;;;;;;;9.10;4.30;;;;;;;6.03;71.14;98298.91;25099;1312;3050790;-69
2022/01/04 10:46:43;;;;;;;5.90;3.80;;;;;;;6.10;71.21;98301.42;25160;1312;3068817;-69
2022/01/04 10:49:19;;;;;;;7.60;4.10;;;;;;;6.01;71.40;98304.98;25148;1312;3049689;-67
2022/01/04 10:52:06;;;;;;;7.90;4.00;;;;;;;5.78;72.06;98313.25;25179;1312;3055315;-67
2022/01/04 10:54:36;;;;;;;9.90;4.60;;;;;;;5.60;72.26;98315.16;25114;1312;3052511;-68
2022/01/04 10:57:06;;;;;;;6.30;3.90;;;;;;;5.49;72.64;98319.47;25187;1312;3026557;-69
2022/01/04 10:59:35;;;;;;;10.10;4.90;;;;;;;5.39;72.85;98327.48;25260;1312;3053011;-68
2022/01/04 11:02:06;;;;;;;13.30;6.20;;;;;;;5.32;72.97;98325.98;25317;1312;3026215;-67
2022/01/04 11:05:27;;;;;;;9.00;4.70;;;;;;;5.22;73.85;98329.17;16215;1312;3054025;-69
2022/01/04 11:08:22;;;;;;;11.80;5.60;;;;;;;6.20;71.62;98326.09;19445;1315;3076319;-67
2022/01/04 11:14:25;;;;;;;13.90;8.60;;;;;;;6.19;71.16;98327.54;20340;1312;3072472;-66
2022/01/04 11:17:09;;;;;;;20.20;9.80;;;;;;;5.63;72.72;98334.46;25133;1312;3071317;-70
2022/01/04 11:19:38;;;;;;;19.50;10.90;;;;;;;5.59;72.76;98331.04;25138;1312;3026886;-70
2022/01/04 11:22:27;;;;;;;30.10;15.60;;;;;;;5.28;73.95;98342.72;25145;1312;3054874;-71
2022/01/04 11:24:58;;;;;;;30.90;17.40;;;;;;;4.97;75.26;98346.83;25102;1312;3026478;-69
2022/01/04 11:27:27;;;;;;;26.90;14.30;;;;;;;4.84;75.71;98355.06;25156;1312;3028487;-65
2022/01/04 11:29:58;;;;;;;29.70;11.20;;;;;;;4.64;76.59;98363.91;25138;1312;3027171;-67
2022/01/04 11:32:28;;;;;;;31.00;15.20;;;;;;;5.22;75.55;98361.42;25085;1312;3026409;-67
2022/01/04 11:35:07;;;;;;;29.20;16.00;;;;;;;5.60;74.02;98356.85;25076;1312;3026532;-66
2022/01/04 11:37:41;;;;;;;35.60;17.00;;;;;;;5.86;73.11;98357.08;25114;1312;3050170;-70
2022/01/04 11:40:49;;;;;;;31.50;15.90;;;;;;;5.76;72.82;98356.13;25127;1312;3028400;-69
2022/01/04 11:43:38;;;;;;;25.50;13.50;;;;;;;5.45;73.94;98364.49;25108;1312;3054148;-68
2022/01/04 11:46:07;;;;;;;30.70;15.30;;;;;;;5.50;73.33;98369.09;25137;1312;3026573;-68
2022/01/04 11:48:41;;;;;;;37.30;19.50;;;;;;;5.29;73.95;98374.08;25145;1312;3026645;-69
2022/01/04 11:51:24;;;;;;;45.50;21.90;;;;;;;5.02;74.92;98376.27;25112;1312;3053932;-65
2022/01/04 11:54:20;;;;;;;28.30;13.40;;;;;;;5.04;74.76;98373.36;25095;1312;3071284;-68
2022/01/04 11:56:54;;;;;;;43.40;19.50;;;;;;;5.81;73.35;98372.66;25110;1312;3052198;-69
2022/01/04 12:00:14;;;;;;;57.20;25.60;;;;;;;6.23;72.10;98376.34;10892;1319;3050967;-70
2022/01/04 12:04:10;;;;;;;58.60;26.50;;;;;;;5.78;73.11;98379.48;14226;1318;3066185;-71